createdAt,value
2019-02-21T00:01:38.097Z,19.40
2019-02-21T00:04:07.820Z,21.87
2019-02-21T00:06:37.319Z,23.33
2019-02-21T00:09:08.302Z,22.97
2019-02-21T00:11:37.728Z,21.97
2019-02-21T00:14:07.178Z,19.57
2019-02-21T00:16:36.659Z,21.87
2019-02-21T00:19:06.225Z,20.77
2019-02-21T00:21:35.615Z,20.73
2019-02-21T00:24:05.010Z,22.77
2019-02-21T00:26:34.531Z,20.13
2019-02-21T00:29:04.005Z,20.13
2019-02-21T00:31:33.398Z,19.90
2019-02-21T00:34:02.828Z,21.33
2019-02-21T00:36:32.316Z,16.70
2019-02-21T00:39:01.790Z,20.07
2019-02-21T00:41:31.215Z,19.03
2019-02-21T00:44:00.617Z,19.57
2019-02-21T00:46:30.100Z,19.70
2019-02-21T00:48:59.619Z,21.07
2019-02-21T00:51:29.012Z,21.53
2019-02-21T00:53:58.435Z,19.27
2019-02-21T00:56:27.960Z,16.87
2019-02-21T00:58:57.446Z,19.90
2019-02-21T01:01:27.086Z,18.17
2019-02-21T01:03:56.610Z,20.37
2019-02-21T01:06:25.997Z,17.80
2019-02-21T01:08:55.403Z,19.30
2019-02-21T01:11:24.949Z,23.30
2019-02-21T01:13:54.546Z,20.70
2019-02-21T01:16:23.937Z,28.30
2019-02-21T01:18:53.388Z,21.70
2019-02-21T01:21:22.860Z,17.60
2019-02-21T01:23:52.337Z,23.40
2019-02-21T01:26:21.779Z,19.60
2019-02-21T01:28:51.205Z,21.30
2019-02-21T01:31:20.704Z,18.83
2019-02-21T01:33:50.232Z,21.87
2019-02-21T01:36:19.642Z,21.40
2019-02-21T01:38:49.131Z,20.00
2019-02-21T01:41:18.661Z,25.87
2019-02-21T01:43:48.065Z,19.27
2019-02-21T01:46:17.564Z,24.67
2019-02-21T01:48:47.121Z,22.27
2019-02-21T01:51:16.519Z,20.67
2019-02-21T01:53:45.944Z,20.80
2019-02-21T01:56:15.471Z,22.83
2019-02-21T01:58:44.953Z,20.53
2019-02-21T02:01:14.360Z,22.33
2019-02-21T02:03:43.907Z,19.13
2019-02-21T02:06:13.404Z,20.50
2019-02-21T02:08:42.924Z,20.70
2019-02-21T02:11:12.343Z,22.03
2019-02-21T02:13:41.745Z,22.63
2019-02-21T02:16:11.224Z,18.87
2019-02-21T02:18:40.676Z,22.33
2019-02-21T02:21:10.165Z,22.73
2019-02-21T02:23:39.998Z,22.83
2019-02-21T02:26:09.538Z,21.53
2019-02-21T02:28:38.942Z,22.70
2019-02-21T02:31:21.579Z,21.57
2019-02-21T02:33:39.759Z,19.93
2019-02-21T02:36:09.295Z,25.03
2019-02-21T02:38:38.729Z,24.07
2019-02-21T02:41:08.366Z,23.43
2019-02-21T02:43:38.057Z,19.67
2019-02-21T02:46:07.431Z,21.93
2019-02-21T02:48:36.876Z,21.97
2019-02-21T02:51:06.359Z,23.20
2019-02-21T02:53:35.813Z,27.20
2019-02-21T02:56:05.475Z,19.90
2019-02-21T02:58:34.865Z,22.80
2019-02-21T03:01:04.522Z,23.57
2019-02-21T03:03:34.018Z,20.00
2019-02-21T03:06:03.408Z,23.10
2019-02-21T03:08:32.807Z,20.97
2019-02-21T03:11:02.404Z,20.87
2019-02-21T03:13:31.882Z,28.20
2019-02-21T03:16:01.284Z,23.43
2019-02-21T03:18:30.814Z,23.90
2019-02-21T03:21:00.290Z,25.23
2019-02-21T03:23:29.780Z,21.77
2019-02-21T03:25:59.383Z,19.60
2019-02-21T03:28:28.910Z,22.87
2019-02-21T03:30:58.425Z,22.13
2019-02-21T03:33:27.969Z,26.00
2019-02-21T03:35:57.407Z,21.70
2019-02-21T03:38:26.866Z,21.27
2019-02-21T03:40:56.290Z,21.23
2019-02-21T03:43:25.785Z,27.97
2019-02-21T03:45:55.283Z,24.17
2019-02-21T03:48:25.010Z,24.60
2019-02-21T03:50:54.443Z,20.30
2019-02-21T03:53:23.971Z,25.57
2019-02-21T03:55:53.958Z,19.70
2019-02-21T03:58:23.448Z,24.73
2019-02-21T04:00:52.891Z,23.40
2019-02-21T04:03:22.318Z,21.23
2019-02-21T04:05:51.818Z,25.47
2019-02-21T04:08:21.332Z,26.17
2019-02-21T04:10:50.762Z,27.30
2019-02-21T04:13:20.236Z,26.07
2019-02-21T04:15:49.724Z,24.87
2019-02-21T04:18:19.169Z,29.20
2019-02-21T04:20:48.655Z,25.93
2019-02-21T04:23:18.124Z,25.90
2019-02-21T04:25:47.762Z,28.57
2019-02-21T04:28:18.355Z,31.33
2019-02-21T04:30:47.840Z,28.40
2019-02-21T04:33:17.353Z,28.97
2019-02-21T04:35:46.760Z,28.73
2019-02-21T04:38:16.289Z,27.63
2019-02-21T04:40:45.830Z,29.50
2019-02-21T04:43:15.324Z,30.43
2019-02-21T04:45:44.747Z,26.63
2019-02-21T04:48:14.423Z,32.17
2019-02-21T04:50:43.925Z,27.67
2019-02-21T04:53:13.402Z,33.63
2019-02-21T04:55:42.881Z,29.30
2019-02-21T04:58:12.378Z,30.97
2019-02-21T05:00:41.838Z,34.33
2019-02-21T05:03:11.299Z,33.47
2019-02-21T05:05:40.844Z,33.97
2019-02-21T05:08:10.320Z,30.07
2019-02-21T05:10:39.754Z,34.17
2019-02-21T05:13:09.119Z,26.37
2019-02-21T05:15:38.600Z,33.10
2019-02-21T05:18:08.108Z,30.77
2019-02-21T05:20:37.789Z,40.87
2019-02-21T05:23:07.279Z,32.10
2019-02-21T05:25:36.805Z,37.57
2019-02-21T05:28:25.957Z,35.13
2019-02-21T05:30:58.529Z,38.00
2019-02-21T05:33:46.839Z,38.70
2019-02-21T05:36:34.006Z,35.50
2019-02-21T05:39:20.867Z,36.80
2019-02-21T05:42:12.231Z,30.53
2019-02-21T05:44:49.833Z,35.10
2019-02-21T05:47:50.038Z,35.13
2019-02-21T05:50:40.760Z,35.33
2019-02-21T05:53:19.058Z,35.17
2019-02-21T05:56:01.937Z,32.03
2019-02-21T05:58:50.286Z,38.77
2019-02-21T06:01:47.698Z,39.57
2019-02-21T06:04:25.044Z,40.07
2019-02-21T06:07:09.919Z,38.97
2019-02-21T06:09:48.613Z,34.57
2019-02-21T06:12:33.232Z,36.60
2019-02-21T06:15:10.025Z,34.53
2019-02-21T06:18:04.259Z,29.50
2019-02-21T06:20:52.808Z,31.73
2019-02-21T06:23:43.818Z,28.87
2019-02-21T06:26:24.208Z,35.30
2019-02-21T06:29:03.492Z,36.03
2019-02-21T06:31:33.210Z,30.80
2019-02-21T06:34:02.702Z,31.13
2019-02-21T06:36:32.127Z,33.20
2019-02-21T06:39:01.682Z,33.77
2019-02-21T06:41:31.180Z,31.40
2019-02-21T06:44:02.053Z,30.40
2019-02-21T06:46:31.493Z,35.30
2019-02-21T06:49:00.916Z,33.13
2019-02-21T06:51:30.436Z,32.33
2019-02-21T06:53:59.974Z,34.10
2019-02-21T06:56:29.382Z,42.90
2019-02-21T06:58:58.827Z,30.57
2019-02-21T07:01:29.570Z,28.93
2019-02-21T07:04:01.751Z,34.87
2019-02-21T07:06:32.190Z,36.30
2019-02-21T07:09:01.906Z,30.10
2019-02-21T07:11:31.324Z,35.27
2019-02-21T07:14:00.777Z,31.00
2019-02-21T07:16:30.514Z,29.10
2019-02-21T07:19:00.037Z,28.30
2019-02-21T07:21:29.452Z,27.10
2019-02-21T07:23:59.062Z,30.10
2019-02-21T07:26:28.606Z,27.67
2019-02-21T07:28:58.423Z,23.73
2019-02-21T07:31:29.249Z,21.97
2019-02-21T07:34:01.560Z,26.03
2019-02-21T07:36:30.313Z,22.93
2019-02-21T07:39:13.832Z,29.13
2019-02-21T07:41:31.009Z,30.67
2019-02-21T07:44:11.356Z,28.83
2019-02-21T07:46:32.458Z,29.27
2019-02-21T07:49:02.029Z,28.30
2019-02-21T07:51:31.540Z,25.13
2019-02-21T07:54:01.071Z,21.43
2019-02-21T07:56:41.181Z,20.90
2019-02-21T07:59:01.638Z,24.17
2019-02-21T08:01:31.263Z,22.33
2019-02-21T08:04:00.801Z,22.90
2019-02-21T08:06:30.215Z,21.20
2019-02-21T08:09:00.020Z,24.63
2019-02-21T08:11:29.500Z,21.03
2019-02-21T08:14:01.273Z,27.60
2019-02-21T08:16:31.024Z,18.27
2019-02-21T08:19:00.456Z,19.37
2019-02-21T08:21:30.269Z,18.83
2019-02-21T08:23:59.821Z,17.87
2019-02-21T08:26:29.651Z,18.33
2019-02-21T08:28:59.103Z,21.23
2019-02-21T08:31:28.624Z,20.83
2019-02-21T08:34:05.971Z,22.63
2019-02-21T08:36:35.587Z,25.03
2019-02-21T08:39:06.223Z,21.30
2019-02-21T08:41:35.720Z,21.23
2019-02-21T08:44:05.374Z,20.77
2019-02-21T08:46:34.762Z,27.40
2019-02-21T08:49:04.233Z,21.50
2019-02-21T08:51:33.913Z,21.37
2019-02-21T08:54:05.548Z,18.90
2019-02-21T08:56:34.518Z,22.33
2019-02-21T08:59:04.162Z,18.97
2019-02-21T09:01:33.668Z,19.87
2019-02-21T09:04:10.547Z,17.47
2019-02-21T09:06:34.597Z,33.97
2019-02-21T09:09:04.701Z,22.17
2019-02-21T09:11:34.104Z,22.30
2019-02-21T09:14:03.608Z,17.77
2019-02-21T09:16:34.355Z,17.77
2019-02-21T09:19:03.935Z,22.60
2019-02-21T09:21:33.542Z,17.00
2019-02-21T09:24:03.001Z,19.13
2019-02-21T09:26:34.660Z,18.83
2019-02-21T09:29:03.822Z,24.47
2019-02-21T09:31:33.213Z,20.57
2019-02-21T09:34:02.794Z,15.27
2019-02-21T09:36:32.327Z,14.77
2019-02-21T09:39:01.841Z,17.70
2019-02-21T09:41:31.251Z,17.43
2019-02-21T09:44:00.950Z,16.40
2019-02-21T09:46:30.362Z,21.53
2019-02-21T09:48:59.763Z,16.33
2019-02-21T09:51:29.316Z,27.00
2019-02-21T09:53:58.795Z,13.77
2019-02-21T09:56:30.745Z,15.03
2019-02-21T09:58:59.530Z,18.37
2019-02-21T10:01:29.021Z,16.03
2019-02-21T10:03:58.567Z,15.67
2019-02-21T10:06:28.144Z,15.20
2019-02-21T10:08:57.563Z,18.43
2019-02-21T10:11:27.056Z,14.43
2019-02-21T10:13:56.611Z,14.87
2019-02-21T10:16:25.994Z,17.10
2019-02-21T10:18:55.480Z,16.07
2019-02-21T10:21:25.206Z,16.23
2019-02-21T10:23:56.619Z,13.60
2019-02-21T10:26:25.851Z,17.00
2019-02-21T10:28:55.432Z,17.67
2019-02-21T10:31:24.902Z,19.73
2019-02-21T10:33:54.368Z,14.47
2019-02-21T10:36:23.915Z,14.70
2019-02-21T10:38:53.376Z,12.43
2019-02-21T10:41:22.779Z,13.57
2019-02-21T10:43:52.261Z,15.00
2019-02-21T10:46:21.754Z,13.90
2019-02-21T10:48:52.161Z,12.57
2019-02-21T10:51:21.612Z,12.37
2019-02-21T10:53:51.032Z,14.47
2019-02-21T10:56:20.625Z,14.13
2019-02-21T10:58:50.307Z,18.13
2019-02-21T11:01:19.723Z,14.47
2019-02-21T11:03:49.249Z,15.53
2019-02-21T11:06:18.777Z,15.80
2019-02-21T11:08:48.179Z,14.33
2019-02-21T11:11:17.701Z,19.73
2019-02-21T11:13:47.318Z,14.33
2019-02-21T11:16:16.707Z,21.20
2019-02-21T11:18:46.123Z,18.80
2019-02-21T11:21:15.704Z,14.23
2019-02-21T11:23:45.181Z,15.70
2019-02-21T11:26:15.115Z,12.80
2019-02-21T11:28:47.180Z,17.17
2019-02-21T11:31:16.121Z,11.90
2019-02-21T11:33:45.595Z,13.57
2019-02-21T11:36:15.111Z,16.33
2019-02-21T11:38:44.646Z,13.53
2019-02-21T11:41:14.239Z,15.33
2019-02-21T11:43:43.655Z,13.67
2019-02-21T11:46:13.235Z,13.93
2019-02-21T11:48:42.712Z,11.93
2019-02-21T11:51:12.610Z,10.93
2019-02-21T11:53:42.026Z,12.27
2019-02-21T11:56:11.527Z,15.97
2019-02-21T11:58:41.223Z,14.33
2019-02-21T12:01:12.839Z,12.80
2019-02-21T12:03:42.265Z,11.27
2019-02-21T12:06:12.141Z,17.27
2019-02-21T12:08:41.608Z,15.07
2019-02-21T12:11:11.156Z,11.37
2019-02-21T12:13:40.904Z,10.83
2019-02-21T12:16:10.609Z,11.90
2019-02-21T12:18:40.526Z,10.27
2019-02-21T12:21:09.991Z,10.27
2019-02-21T12:23:39.721Z,11.33
2019-02-21T12:26:09.143Z,12.80
2019-02-21T12:28:38.705Z,11.27
2019-02-21T12:31:08.252Z,13.77
2019-02-21T12:33:38.102Z,10.33
2019-02-21T12:36:07.931Z,11.30
2019-02-21T12:38:37.377Z,14.90
2019-02-21T12:41:06.946Z,10.80
2019-02-21T12:43:36.506Z,14.47
2019-02-21T12:46:05.960Z,12.30
2019-02-21T12:48:35.415Z,13.93
2019-02-21T12:51:05.491Z,15.37
2019-02-21T12:53:35.090Z,15.67
2019-02-21T12:56:04.507Z,11.33
2019-02-21T12:58:33.963Z,13.30
2019-02-21T13:01:03.473Z,13.33
2019-02-21T13:03:33.741Z,11.47
2019-02-21T13:06:04.748Z,11.17
2019-02-21T13:08:34.411Z,13.00
2019-02-21T13:11:03.829Z,11.43
2019-02-21T13:13:37.621Z,13.73
2019-02-21T13:16:07.118Z,9.90
2019-02-21T13:18:36.618Z,11.73
2019-02-21T13:21:06.186Z,20.47
2019-02-21T13:23:35.599Z,13.13
2019-02-21T13:26:05.486Z,10.03
2019-02-21T13:28:35.027Z,11.67
2019-02-21T13:31:04.426Z,10.50
2019-02-21T13:33:34.202Z,14.00
2019-02-21T13:36:05.159Z,10.70
2019-02-21T13:38:34.633Z,13.33
2019-02-21T13:41:04.028Z,14.33
2019-02-21T13:43:33.495Z,14.63
2019-02-21T13:46:03.043Z,11.90
2019-02-21T13:48:32.524Z,17.77
2019-02-21T13:51:02.155Z,12.40
2019-02-21T13:53:31.536Z,17.20
2019-02-21T13:56:01.070Z,13.93
2019-02-21T13:58:30.762Z,11.63
2019-02-21T14:01:00.159Z,13.10
2019-02-21T14:03:29.597Z,13.00
2019-02-21T14:06:03.520Z,8.97
2019-02-21T14:08:30.351Z,12.03
2019-02-21T14:11:00.002Z,11.57
2019-02-21T14:13:29.453Z,11.77
2019-02-21T14:15:59.145Z,13.77
2019-02-21T14:18:28.652Z,10.43
2019-02-21T14:20:58.124Z,17.17
2019-02-21T14:23:28.164Z,11.93
2019-02-21T14:25:58.081Z,15.67
2019-02-21T14:28:27.591Z,21.10
2019-02-21T14:30:57.107Z,16.73
2019-02-21T14:33:26.589Z,18.30
2019-02-21T14:35:56.014Z,20.90
2019-02-21T14:38:28.138Z,15.70
2019-02-21T14:40:58.113Z,27.80
2019-02-21T14:43:27.621Z,16.43
2019-02-21T14:45:57.039Z,17.93
2019-02-21T14:48:26.903Z,22.83
2019-02-21T14:50:56.684Z,13.70
2019-02-21T14:53:26.150Z,17.07
2019-02-21T14:55:55.565Z,14.07
2019-02-21T14:58:25.007Z,19.57
2019-02-21T15:00:54.489Z,15.97
2019-02-21T15:03:23.945Z,12.53
2019-02-21T15:05:53.631Z,12.50
2019-02-21T15:08:23.144Z,12.67
2019-02-21T15:10:53.559Z,19.27
2019-02-21T15:13:25.534Z,23.40
2019-02-21T15:15:56.624Z,14.30
2019-02-21T15:18:26.252Z,15.77
2019-02-21T15:20:55.640Z,14.90
2019-02-21T15:23:25.080Z,13.23
2019-02-21T15:25:54.638Z,14.07
2019-02-21T15:28:24.127Z,12.47
2019-02-21T15:30:53.536Z,15.17
2019-02-21T15:33:23.058Z,15.33
2019-02-21T15:35:52.701Z,14.50
2019-02-21T15:38:22.293Z,14.70
2019-02-21T15:40:54.090Z,15.23
2019-02-21T15:43:23.542Z,16.00
2019-02-21T15:45:52.944Z,12.60
2019-02-21T15:48:22.496Z,17.40
2019-02-21T15:50:51.977Z,20.03
2019-02-21T15:53:21.481Z,20.40
2019-02-21T15:55:51.114Z,21.23
2019-02-21T15:58:20.564Z,16.90
2019-02-21T16:00:50.148Z,22.50
2019-02-21T16:03:19.818Z,23.13
2019-02-21T16:05:49.361Z,26.53
2019-02-21T16:08:18.793Z,25.33
2019-02-21T16:10:48.507Z,33.00
2019-02-21T16:13:18.146Z,28.80
2019-02-21T16:15:47.714Z,33.07
2019-02-21T16:18:17.201Z,56.37
2019-02-21T16:20:46.653Z,48.00
2019-02-21T16:23:16.079Z,48.57
2019-02-21T16:25:45.768Z,40.40
2019-02-21T16:28:15.225Z,50.07
2019-02-21T16:30:44.633Z,43.70
2019-02-21T16:33:14.094Z,46.63
2019-02-21T16:35:43.602Z,41.43
2019-02-21T16:38:13.043Z,35.90
2019-02-21T16:40:42.467Z,35.23
2019-02-21T16:43:11.933Z,36.57
2019-02-21T16:45:46.279Z,33.07
2019-02-21T16:48:12.592Z,32.20
2019-02-21T16:50:41.963Z,31.83
2019-02-21T16:53:11.417Z,28.63
2019-02-21T16:55:40.953Z,32.03
2019-02-21T16:58:10.373Z,29.57
2019-02-21T17:00:51.318Z,29.77
2019-02-21T17:03:11.018Z,28.13
2019-02-21T17:05:40.441Z,35.80
2019-02-21T17:08:09.892Z,37.53
2019-02-21T17:10:39.440Z,36.30
2019-02-21T17:13:08.904Z,33.57
2019-02-21T17:15:38.294Z,41.17
2019-02-21T17:18:07.915Z,29.03
2019-02-21T17:20:37.412Z,29.97
2019-02-21T17:23:06.855Z,29.10
2019-02-21T17:25:36.455Z,29.13
2019-02-21T17:28:05.884Z,26.33
2019-02-21T17:30:35.388Z,31.37
2019-02-21T17:33:05.027Z,139.30
2019-02-21T17:35:34.438Z,30.83
2019-02-21T17:38:03.888Z,29.97
2019-02-21T17:40:33.506Z,28.17
2019-02-21T17:43:02.918Z,30.73
2019-02-21T17:45:32.396Z,27.03
2019-02-21T17:48:01.851Z,26.27
2019-02-21T17:50:31.230Z,24.93
2019-02-21T17:53:00.682Z,27.57
2019-02-21T17:55:30.370Z,30.00
2019-02-21T17:57:59.796Z,29.80
2019-02-21T18:00:33.429Z,32.90
2019-02-21T18:03:02.908Z,27.17
2019-02-21T18:05:32.383Z,29.00
2019-02-21T18:08:01.853Z,29.17
2019-02-21T18:10:32.412Z,31.47
2019-02-21T18:13:01.933Z,28.63
2019-02-21T18:15:31.399Z,33.90
2019-02-21T18:18:00.920Z,28.30
2019-02-21T18:20:30.355Z,26.83
2019-02-21T18:22:59.778Z,28.00
2019-02-21T18:25:32.728Z,28.53
2019-02-21T18:28:02.345Z,38.50
2019-02-21T18:30:31.931Z,33.70
2019-02-21T18:33:01.481Z,30.67
2019-02-21T18:35:31.242Z,31.33
2019-02-21T18:38:00.674Z,46.30
2019-02-21T18:40:30.261Z,29.73
2019-02-21T18:42:59.701Z,39.47
2019-02-21T18:45:29.102Z,30.50
2019-02-21T18:47:58.606Z,32.33
2019-02-21T18:50:37.742Z,26.77
2019-02-21T18:52:59.238Z,27.00
2019-02-21T18:55:28.681Z,29.17
2019-02-21T18:57:58.124Z,26.30
2019-02-21T19:00:27.831Z,26.60
2019-02-21T19:02:57.297Z,27.80
2019-02-21T19:05:35.275Z,28.77
2019-02-21T19:08:04.692Z,29.87
2019-02-21T19:10:29.220Z,31.90
2019-02-21T19:13:00.050Z,36.93
2019-02-21T19:15:29.604Z,33.40
2019-02-21T19:17:59.079Z,34.07
2019-02-21T19:20:28.685Z,30.93
2019-02-21T19:22:58.118Z,34.70
2019-02-21T19:25:27.683Z,32.83
2019-02-21T19:27:57.150Z,38.53
2019-02-21T19:30:29.921Z,52.33
2019-02-21T19:32:59.481Z,41.80
2019-02-21T19:35:28.972Z,39.17
2019-02-21T19:38:09.547Z,31.40
2019-02-21T19:40:29.720Z,32.07
2019-02-21T19:42:59.681Z,29.27
2019-02-21T19:45:29.255Z,30.33
2019-02-21T19:47:58.757Z,26.93
2019-02-21T19:50:28.232Z,30.97
2019-02-21T19:52:57.737Z,32.33
2019-02-21T19:55:27.258Z,30.70
2019-02-21T19:57:56.674Z,35.60
2019-02-21T20:00:26.845Z,37.20
2019-02-21T20:02:56.147Z,33.10
2019-02-21T20:05:25.789Z,31.63
2019-02-21T20:07:55.347Z,38.43
2019-02-21T20:10:24.898Z,34.40
2019-02-21T20:12:54.763Z,33.87
2019-02-21T20:15:25.213Z,31.83
2019-02-21T20:17:54.695Z,30.23
2019-02-21T20:20:24.209Z,28.93
2019-02-21T20:22:53.622Z,23.17
2019-02-21T20:25:23.368Z,23.43
2019-02-21T20:27:52.803Z,23.50
2019-02-21T20:30:22.278Z,23.47
2019-02-21T20:32:51.758Z,25.03
2019-02-21T20:35:21.150Z,23.43
2019-02-21T20:37:50.628Z,23.67
2019-02-21T20:40:20.142Z,24.53
2019-02-21T20:42:49.674Z,23.00
2019-02-21T20:45:19.174Z,26.53
2019-02-21T20:47:48.907Z,23.77
2019-02-21T20:50:18.688Z,18.53
2019-02-21T20:52:48.117Z,21.67
2019-02-21T20:55:17.570Z,22.63
2019-02-21T20:57:47.104Z,23.87
2019-02-21T21:00:18.354Z,22.47
2019-02-21T21:02:47.958Z,25.97
2019-02-21T21:05:17.442Z,18.67
2019-02-21T21:07:46.949Z,19.83
2019-02-21T21:10:16.972Z,17.83
2019-02-21T21:12:46.463Z,22.07
2019-02-21T21:15:16.071Z,25.63
2019-02-21T21:17:45.878Z,24.37
2019-02-21T21:20:16.809Z,21.57
2019-02-21T21:22:46.426Z,23.67
2019-02-21T21:25:16.358Z,20.23
2019-02-21T21:27:45.787Z,20.07
2019-02-21T21:30:15.555Z,20.30
2019-02-21T21:32:45.049Z,19.77
2019-02-21T21:35:14.726Z,20.50
2019-02-21T21:37:44.350Z,16.20
2019-02-21T21:40:14.556Z,21.47
2019-02-21T21:42:44.077Z,21.77
2019-02-21T21:45:15.746Z,21.20
2019-02-21T21:47:45.457Z,18.97
2019-02-21T21:50:16.558Z,21.27
2019-02-21T21:52:45.983Z,21.43
2019-02-21T21:55:15.629Z,18.93
2019-02-21T21:57:45.097Z,16.90
2019-02-21T22:00:19.721Z,18.73
2019-02-21T22:02:49.145Z,20.13
2019-02-21T22:05:18.547Z,20.93
2019-02-21T22:07:49.410Z,17.90
2019-02-21T22:10:19.290Z,27.90
2019-02-21T22:12:48.800Z,17.93
2019-02-21T22:15:18.581Z,19.80
2019-02-21T22:17:48.024Z,20.23
2019-02-21T22:20:18.105Z,17.83
2019-02-21T22:22:47.571Z,16.87
2019-02-21T22:25:17.159Z,16.93
2019-02-21T22:27:46.564Z,20.47
2019-02-21T22:30:16.832Z,16.47
2019-02-21T22:32:46.263Z,19.40
2019-02-21T22:35:15.839Z,19.37
2019-02-21T22:37:45.354Z,22.17
2019-02-21T22:40:15.010Z,19.47
2019-02-21T22:42:44.471Z,19.23
2019-02-21T22:45:14.317Z,19.10
2019-02-21T22:47:43.848Z,22.50
2019-02-21T22:50:14.474Z,20.03
2019-02-21T22:52:44.169Z,21.83
2019-02-21T22:55:13.876Z,20.90
2019-02-21T22:57:43.318Z,19.37
2019-02-21T23:01:05.217Z,34.00
2019-02-21T23:03:49.692Z,19.97
2019-02-21T23:06:52.722Z,16.27
2019-02-21T23:09:27.447Z,18.60
2019-02-21T23:11:55.692Z,19.07
2019-02-21T23:14:25.178Z,18.80
2019-02-21T23:16:54.554Z,22.80
2019-02-21T23:19:24.259Z,19.80
2019-02-21T23:21:53.818Z,25.37
2019-02-21T23:24:23.257Z,18.67
2019-02-21T23:26:52.802Z,19.57
2019-02-21T23:29:22.234Z,22.13
2019-02-21T23:31:51.706Z,17.10
2019-02-21T23:34:29.079Z,24.53
2019-02-21T23:36:58.464Z,16.03
2019-02-21T23:39:37.526Z,20.87
2019-02-21T23:41:59.126Z,23.70
2019-02-21T23:44:28.569Z,25.93
2019-02-21T23:46:58.046Z,23.03
2019-02-21T23:49:27.539Z,23.87
2019-02-21T23:51:56.943Z,22.93
2019-02-21T23:54:26.380Z,24.50
2019-02-21T23:56:55.894Z,23.77
2019-02-21T23:59:25.328Z,30.97
